sensor_id;sensor_type;location;lat;lon;timestamp;P1;durP1;ratioP1;P2;durP2;ratioP2
17524;SDS011;40431;52.198;9.902;2023-03-01T00:02:03;11.17;;;10.37;;
17524;SDS011;40431;52.198;9.902;2023-03-01T00:04:30;11.53;;;10.47;;
17524;SDS011;40431;52.198;9.902;2023-03-01T00:06:58;11.57;;;10.67;;
17524;SDS011;40431;52.198;9.902;2023-03-01T00:09:24;12.37;;;11.37;;
17524;SDS011;40431;52.198;9.902;2023-03-01T00:11:51;12.43;;;11.53;;
17524;SDS011;40431;52.198;9.902;2023-03-01T00:14:17;11.30;;;10.30;;
17524;SDS011;40431;52.198;9.902;2023-03-01T00:16:44;12.47;;;11.47;;
17524;SDS011;40431;52.198;9.902;2023-03-01T00:19:12;12.40;;;11.40;;
17524;SDS011;40431;52.198;9.902;2023-03-01T00:21:39;12.63;;;11.53;;
17524;SDS011;40431;52.198;9.902;2023-03-01T00:24:08;11.97;;;11.17;;
17524;SDS011;40431;52.198;9.902;2023-03-01T00:26:35;11.40;;;10.50;;
17524;SDS011;40431;52.198;9.902;2023-03-01T00:29:02;11.73;;;10.73;;
17524;SDS011;40431;52.198;9.902;2023-03-01T00:31:29;13.20;;;12.00;;
17524;SDS011;40431;52.198;9.902;2023-03-01T00:33:58;13.07;;;11.97;;
17524;SDS011;40431;52.198;9.902;2023-03-01T00:36:26;12.60;;;11.60;;
17524;SDS011;40431;52.198;9.902;2023-03-01T00:38:53;12.73;;;11.67;;
17524;SDS011;40431;52.198;9.902;2023-03-01T00:41:21;12.60;;;11.57;;
17524;SDS011;40431;52.198;9.902;2023-03-01T00:43:49;12.37;;;11.37;;
17524;SDS011;40431;52.198;9.902;2023-03-01T00:46:17;13.23;;;12.17;;
17524;SDS011;40431;52.198;9.902;2023-03-01T00:48:44;12.93;;;11.63;;
17524;SDS011;40431;52.198;9.902;2023-03-01T00:51:12;13.50;;;12.50;;
17524;SDS011;40431;52.198;9.902;2023-03-01T00:53:40;12.53;;;11.53;;
17524;SDS011;40431;52.198;9.902;2023-03-01T00:56:08;12.53;;;11.53;;
17524;SDS011;40431;52.198;9.902;2023-03-01T00:58:37;12.77;;;11.77;;
17524;SDS011;40431;52.198;9.902;2023-03-01T01:01:06;11.83;;;10.83;;
17524;SDS011;40431;52.198;9.902;2023-03-01T01:03:42;11.47;;;10.57;;
17524;SDS011;40431;52.198;9.902;2023-03-01T01:06:12;11.47;;;10.57;;
17524;SDS011;40431;52.198;9.902;2023-03-01T01:08:39;12.17;;;11.10;;
17524;SDS011;40431;52.198;9.902;2023-03-01T01:11:08;12.50;;;11.40;;
17524;SDS011;40431;52.198;9.902;2023-03-01T01:13:36;13.37;;;11.70;;
17524;SDS011;40431;52.198;9.902;2023-03-01T01:16:03;11.70;;;10.80;;
17524;SDS011;40431;52.198;9.902;2023-03-01T01:18:30;11.90;;;10.80;;
17524;SDS011;40431;52.198;9.902;2023-03-01T01:20:56;12.20;;;11.23;;
17524;SDS011;40431;52.198;9.902;2023-03-01T01:23:23;12.57;;;11.37;;
17524;SDS011;40431;52.198;9.902;2023-03-01T01:25:49;11.83;;;10.93;;
17524;SDS011;40431;52.198;9.902;2023-03-01T01:28:15;11.27;;;10.50;;
17524;SDS011;40431;52.198;9.902;2023-03-01T01:30:43;10.70;;;9.80;;
17524;SDS011;40431;52.198;9.902;2023-03-01T01:33:09;11.70;;;10.60;;
17524;SDS011;40431;52.198;9.902;2023-03-01T01:35:36;10.50;;;9.67;;
17524;SDS011;40431;52.198;9.902;2023-03-01T01:38:02;10.10;;;9.10;;
17524;SDS011;40431;52.198;9.902;2023-03-01T01:40:28;10.50;;;9.70;;
17524;SDS011;40431;52.198;9.902;2023-03-01T01:42:55;11.17;;;10.27;;
17524;SDS011;40431;52.198;9.902;2023-03-01T01:45:26;10.23;;;9.43;;
17524;SDS011;40431;52.198;9.902;2023-03-01T01:47:57;10.13;;;9.33;;
17524;SDS011;40431;52.198;9.902;2023-03-01T01:50:30;10.17;;;9.33;;
17524;SDS011;40431;52.198;9.902;2023-03-01T01:53:03;10.93;;;10.03;;
17524;SDS011;40431;52.198;9.902;2023-03-01T01:55:32;10.17;;;9.37;;
17524;SDS011;40431;52.198;9.902;2023-03-01T01:58:01;10.40;;;9.60;;
17524;SDS011;40431;52.198;9.902;2023-03-01T02:00:30;11.67;;;10.67;;
17524;SDS011;40431;52.198;9.902;2023-03-01T02:02:59;10.07;;;9.23;;
17524;SDS011;40431;52.198;9.902;2023-03-01T02:05:29;11.07;;;10.27;;
17524;SDS011;40431;52.198;9.902;2023-03-01T02:08:02;10.93;;;10.03;;
17524;SDS011;40431;52.198;9.902;2023-03-01T02:10:29;11.43;;;10.37;;
17524;SDS011;40431;52.198;9.902;2023-03-01T02:13:00;12.83;;;11.73;;
17524;SDS011;40431;52.198;9.902;2023-03-01T02:15:27;12.53;;;11.53;;
17524;SDS011;40431;52.198;9.902;2023-03-01T02:18:00;13.30;;;12.30;;
17524;SDS011;40431;52.198;9.902;2023-03-01T02:20:30;12.83;;;11.73;;
17524;SDS011;40431;52.198;9.902;2023-03-01T02:23:01;13.03;;;11.83;;
17524;SDS011;40431;52.198;9.902;2023-03-01T02:25:31;13.63;;;12.53;;
17524;SDS011;40431;52.198;9.902;2023-03-01T02:28:04;14.23;;;13.00;;
17524;SDS011;40431;52.198;9.902;2023-03-01T02:30:38;14.40;;;13.20;;
17524;SDS011;40431;52.198;9.902;2023-03-01T02:33:25;14.60;;;13.40;;
17524;SDS011;40431;52.198;9.902;2023-03-01T02:35:50;12.53;;;11.40;;
17524;SDS011;40431;52.198;9.902;2023-03-01T02:38:20;14.33;;;12.93;;
17524;SDS011;40431;52.198;9.902;2023-03-01T02:40:47;15.43;;;13.93;;
17524;SDS011;40431;52.198;9.902;2023-03-01T02:43:15;14.90;;;13.60;;
17524;SDS011;40431;52.198;9.902;2023-03-01T02:45:48;13.80;;;12.63;;
17524;SDS011;40431;52.198;9.902;2023-03-01T02:48:15;16.00;;;14.60;;
17524;SDS011;40431;52.198;9.902;2023-03-01T02:50:50;13.97;;;12.63;;
17524;SDS011;40431;52.198;9.902;2023-03-01T02:53:27;14.53;;;13.23;;
17524;SDS011;40431;52.198;9.902;2023-03-01T02:55:58;14.30;;;13.10;;
17524;SDS011;40431;52.198;9.902;2023-03-01T02:58:25;12.87;;;11.67;;
17524;SDS011;40431;52.198;9.902;2023-03-01T03:00:52;13.30;;;12.07;;
17524;SDS011;40431;52.198;9.902;2023-03-01T03:03:20;13.67;;;12.40;;
17524;SDS011;40431;52.198;9.902;2023-03-01T03:05:47;13.57;;;12.37;;
17524;SDS011;40431;52.198;9.902;2023-03-01T03:08:14;12.67;;;11.67;;
17524;SDS011;40431;52.198;9.902;2023-03-01T03:10:48;13.10;;;12.00;;
17524;SDS011;40431;52.198;9.902;2023-03-01T03:13:15;13.57;;;12.43;;
17524;SDS011;40431;52.198;9.902;2023-03-01T03:15:42;12.67;;;11.57;;
17524;SDS011;40431;52.198;9.902;2023-03-01T03:18:11;12.30;;;11.23;;
17524;SDS011;40431;52.198;9.902;2023-03-01T03:20:41;12.60;;;11.53;;
17524;SDS011;40431;52.198;9.902;2023-03-01T03:23:09;12.90;;;11.77;;
17524;SDS011;40431;52.198;9.902;2023-03-01T03:25:35;13.60;;;12.40;;
17524;SDS011;40431;52.198;9.902;2023-03-01T03:28:02;13.30;;;12.20;;
17524;SDS011;40431;52.198;9.902;2023-03-01T03:30:34;12.93;;;11.83;;
17524;SDS011;40431;52.198;9.902;2023-03-01T03:33:04;12.00;;;11.10;;
17524;SDS011;40431;52.198;9.902;2023-03-01T03:35:34;11.87;;;10.87;;
17524;SDS011;40431;52.198;9.902;2023-03-01T03:38:05;11.87;;;10.97;;
17524;SDS011;40431;52.198;9.902;2023-03-01T03:40:35;12.33;;;11.33;;
17524;SDS011;40431;52.198;9.902;2023-03-01T03:43:03;12.17;;;11.27;;
17524;SDS011;40431;52.198;9.902;2023-03-01T03:45:31;11.50;;;10.53;;
17524;SDS011;40431;52.198;9.902;2023-03-01T03:47:58;12.37;;;11.47;;
17524;SDS011;40431;52.198;9.902;2023-03-01T03:50:25;12.70;;;11.50;;
17524;SDS011;40431;52.198;9.902;2023-03-01T03:52:53;12.70;;;11.60;;
17524;SDS011;40431;52.198;9.902;2023-03-01T03:55:19;12.80;;;11.80;;
17524;SDS011;40431;52.198;9.902;2023-03-01T03:57:46;13.33;;;12.03;;
17524;SDS011;40431;52.198;9.902;2023-03-01T04:00:17;13.10;;;11.80;;
17524;SDS011;40431;52.198;9.902;2023-03-01T04:02:45;13.23;;;12.17;;
17524;SDS011;40431;52.198;9.902;2023-03-01T04:05:14;13.00;;;11.57;;
17524;SDS011;40431;52.198;9.902;2023-03-01T04:07:41;13.73;;;12.33;;
17524;SDS011;40431;52.198;9.902;2023-03-01T04:10:11;15.97;;;12.37;;
17524;SDS011;40431;52.198;9.902;2023-03-01T04:12:38;16.90;;;15.40;;
17524;SDS011;40431;52.198;9.902;2023-03-01T04:15:06;44.30;;;27.57;;
17524;SDS011;40431;52.198;9.902;2023-03-01T04:17:38;53.97;;;29.27;;
17524;SDS011;40431;52.198;9.902;2023-03-01T04:20:05;29.23;;;23.03;;
17524;SDS011;40431;52.198;9.902;2023-03-01T04:22:34;23.10;;;20.10;;
17524;SDS011;40431;52.198;9.902;2023-03-01T04:25:00;21.07;;;19.07;;
17524;SDS011;40431;52.198;9.902;2023-03-01T04:27:32;19.43;;;17.30;;
17524;SDS011;40431;52.198;9.902;2023-03-01T04:29:59;17.63;;;16.03;;
17524;SDS011;40431;52.198;9.902;2023-03-01T04:32:25;17.83;;;16.23;;
17524;SDS011;40431;52.198;9.902;2023-03-01T04:34:51;18.00;;;16.40;;
17524;SDS011;40431;52.198;9.902;2023-03-01T04:37:18;17.80;;;16.30;;
17524;SDS011;40431;52.198;9.902;2023-03-01T04:39:44;17.03;;;15.23;;
17524;SDS011;40431;52.198;9.902;2023-03-01T04:42:12;14.90;;;13.63;;
17524;SDS011;40431;52.198;9.902;2023-03-01T04:44:40;15.13;;;13.83;;
17524;SDS011;40431;52.198;9.902;2023-03-01T04:47:06;15.17;;;13.97;;
17524;SDS011;40431;52.198;9.902;2023-03-01T04:49:32;15.03;;;13.63;;
17524;SDS011;40431;52.198;9.902;2023-03-01T04:51:59;14.13;;;13.03;;
17524;SDS011;40431;52.198;9.902;2023-03-01T04:54:29;13.93;;;12.57;;
17524;SDS011;40431;52.198;9.902;2023-03-01T04:56:56;13.70;;;12.60;;
17524;SDS011;40431;52.198;9.902;2023-03-01T04:59:22;13.83;;;12.77;;
17524;SDS011;40431;52.198;9.902;2023-03-01T05:01:50;13.87;;;12.77;;
17524;SDS011;40431;52.198;9.902;2023-03-01T05:04:16;14.00;;;12.83;;
17524;SDS011;40431;52.198;9.902;2023-03-01T05:06:43;20.37;;;13.00;;
17524;SDS011;40431;52.198;9.902;2023-03-01T05:09:09;13.63;;;12.37;;
17524;SDS011;40431;52.198;9.902;2023-03-01T05:11:37;13.60;;;12.40;;
17524;SDS011;40431;52.198;9.902;2023-03-01T05:14:03;14.67;;;13.47;;
17524;SDS011;40431;52.198;9.902;2023-03-01T05:16:30;15.43;;;13.93;;
17524;SDS011;40431;52.198;9.902;2023-03-01T05:18:58;14.30;;;13.10;;
17524;SDS011;40431;52.198;9.902;2023-03-01T05:21:25;13.87;;;12.60;;
17524;SDS011;40431;52.198;9.902;2023-03-01T05:23:52;13.53;;;12.43;;
17524;SDS011;40431;52.198;9.902;2023-03-01T05:26:19;13.97;;;12.97;;
17524;SDS011;40431;52.198;9.902;2023-03-01T05:28:47;14.87;;;13.67;;
17524;SDS011;40431;52.198;9.902;2023-03-01T05:31:13;20.30;;;18.63;;
17524;SDS011;40431;52.198;9.902;2023-03-01T05:33:40;15.73;;;14.33;;
17524;SDS011;40431;52.198;9.902;2023-03-01T05:36:10;17.33;;;15.73;;
17524;SDS011;40431;52.198;9.902;2023-03-01T05:38:36;15.27;;;14.10;;
17524;SDS011;40431;52.198;9.902;2023-03-01T05:41:03;14.23;;;12.97;;
17524;SDS011;40431;52.198;9.902;2023-03-01T05:43:29;13.90;;;12.80;;
17524;SDS011;40431;52.198;9.902;2023-03-01T05:45:57;15.10;;;13.90;;
17524;SDS011;40431;52.198;9.902;2023-03-01T05:48:24;14.67;;;13.47;;
17524;SDS011;40431;52.198;9.902;2023-03-01T05:50:51;12.90;;;11.90;;
17524;SDS011;40431;52.198;9.902;2023-03-01T05:53:19;16.03;;;14.40;;
17524;SDS011;40431;52.198;9.902;2023-03-01T05:55:46;14.30;;;13.00;;
17524;SDS011;40431;52.198;9.902;2023-03-01T05:58:15;15.37;;;13.80;;
17524;SDS011;40431;52.198;9.902;2023-03-01T06:00:43;14.87;;;13.77;;
17524;SDS011;40431;52.198;9.902;2023-03-01T06:03:11;16.10;;;14.80;;
17524;SDS011;40431;52.198;9.902;2023-03-01T06:05:39;15.30;;;14.03;;
17524;SDS011;40431;52.198;9.902;2023-03-01T06:08:06;15.60;;;14.40;;
17524;SDS011;40431;52.198;9.902;2023-03-01T06:10:35;14.00;;;12.93;;
17524;SDS011;40431;52.198;9.902;2023-03-01T06:13:02;15.40;;;14.20;;
17524;SDS011;40431;52.198;9.902;2023-03-01T06:15:29;15.27;;;14.10;;
17524;SDS011;40431;52.198;9.902;2023-03-01T06:17:55;15.50;;;14.30;;
17524;SDS011;40431;52.198;9.902;2023-03-01T06:20:23;16.63;;;14.97;;
17524;SDS011;40431;52.198;9.902;2023-03-01T06:22:50;15.70;;;14.50;;
17524;SDS011;40431;52.198;9.902;2023-03-01T06:25:18;17.57;;;16.17;;
17524;SDS011;40431;52.198;9.902;2023-03-01T06:27:47;17.70;;;16.27;;
17524;SDS011;40431;52.198;9.902;2023-03-01T06:30:15;17.50;;;16.10;;
17524;SDS011;40431;52.198;9.902;2023-03-01T06:32:42;15.63;;;14.43;;
17524;SDS011;40431;52.198;9.902;2023-03-01T06:35:09;18.20;;;16.43;;
17524;SDS011;40431;52.198;9.902;2023-03-01T06:37:36;18.47;;;16.60;;
17524;SDS011;40431;52.198;9.902;2023-03-01T06:40:03;15.57;;;14.17;;
17524;SDS011;40431;52.198;9.902;2023-03-01T06:42:33;17.20;;;15.70;;
17524;SDS011;40431;52.198;9.902;2023-03-01T06:45:01;17.43;;;16.03;;
17524;SDS011;40431;52.198;9.902;2023-03-01T06:47:28;17.27;;;15.77;;
17524;SDS011;40431;52.198;9.902;2023-03-01T06:49:54;19.27;;;17.40;;
17524;SDS011;40431;52.198;9.902;2023-03-01T06:52:20;19.00;;;17.37;;
17524;SDS011;40431;52.198;9.902;2023-03-01T06:54:47;17.27;;;15.77;;
17524;SDS011;40431;52.198;9.902;2023-03-01T06:57:14;17.63;;;16.03;;
17524;SDS011;40431;52.198;9.902;2023-03-01T06:59:40;18.73;;;16.20;;
17524;SDS011;40431;52.198;9.902;2023-03-01T07:02:09;20.30;;;18.20;;
17524;SDS011;40431;52.198;9.902;2023-03-01T07:04:36;19.07;;;17.07;;
17524;SDS011;40431;52.198;9.902;2023-03-01T07:07:02;17.57;;;15.87;;
17524;SDS011;40431;52.198;9.902;2023-03-01T07:09:29;16.70;;;15.20;;
17524;SDS011;40431;52.198;9.902;2023-03-01T07:11:56;17.53;;;16.07;;
17524;SDS011;40431;52.198;9.902;2023-03-01T07:14:23;15.67;;;14.33;;
17524;SDS011;40431;52.198;9.902;2023-03-01T07:16:50;16.70;;;15.33;;
17524;SDS011;40431;52.198;9.902;2023-03-01T07:19:18;15.80;;;14.50;;
17524;SDS011;40431;52.198;9.902;2023-03-01T07:21:45;16.17;;;14.63;;
17524;SDS011;40431;52.198;9.902;2023-03-01T07:24:11;16.73;;;15.20;;
17524;SDS011;40431;52.198;9.902;2023-03-01T07:26:38;19.33;;;17.47;;
17524;SDS011;40431;52.198;9.902;2023-03-01T07:29:05;18.50;;;17.00;;
17524;SDS011;40431;52.198;9.902;2023-03-01T07:31:32;16.30;;;14.97;;
17524;SDS011;40431;52.198;9.902;2023-03-01T07:33:59;18.23;;;16.63;;
17524;SDS011;40431;52.198;9.902;2023-03-01T07:36:27;18.67;;;16.97;;
17524;SDS011;40431;52.198;9.902;2023-03-01T07:38:53;18.20;;;16.70;;
17524;SDS011;40431;52.198;9.902;2023-03-01T07:41:20;17.47;;;15.97;;
17524;SDS011;40431;52.198;9.902;2023-03-01T07:43:47;19.37;;;17.63;;
17524;SDS011;40431;52.198;9.902;2023-03-01T07:46:13;17.83;;;16.33;;
17524;SDS011;40431;52.198;9.902;2023-03-01T07:48:40;16.90;;;15.53;;
17524;SDS011;40431;52.198;9.902;2023-03-01T07:51:06;16.40;;;15.10;;
17524;SDS011;40431;52.198;9.902;2023-03-01T07:53:35;16.80;;;15.40;;
17524;SDS011;40431;52.198;9.902;2023-03-01T07:56:02;16.33;;;14.93;;
17524;SDS011;40431;52.198;9.902;2023-03-01T07:58:29;16.10;;;14.90;;
17524;SDS011;40431;52.198;9.902;2023-03-01T08:00:55;17.27;;;15.87;;
17524;SDS011;40431;52.198;9.902;2023-03-01T08:03:22;16.27;;;15.07;;
17524;SDS011;40431;52.198;9.902;2023-03-01T08:05:48;16.80;;;15.47;;
17524;SDS011;40431;52.198;9.902;2023-03-01T08:08:14;17.27;;;15.77;;
17524;SDS011;40431;52.198;9.902;2023-03-01T08:10:42;16.90;;;15.40;;
17524;SDS011;40431;52.198;9.902;2023-03-01T08:13:08;16.47;;;14.97;;
17524;SDS011;40431;52.198;9.902;2023-03-01T08:15:35;17.47;;;16.00;;
17524;SDS011;40431;52.198;9.902;2023-03-01T08:18:01;15.87;;;14.67;;
17524;SDS011;40431;52.198;9.902;2023-03-01T08:20:27;17.00;;;15.40;;
17524;SDS011;40431;52.198;9.902;2023-03-01T08:22:54;16.33;;;14.63;;
17524;SDS011;40431;52.198;9.902;2023-03-01T08:25:20;16.67;;;15.40;;
17524;SDS011;40431;52.198;9.902;2023-03-01T08:27:48;18.47;;;17.07;;
17524;SDS011;40431;52.198;9.902;2023-03-01T08:30:14;16.43;;;15.07;;
17524;SDS011;40431;52.198;9.902;2023-03-01T08:32:41;18.70;;;16.13;;
17524;SDS011;40431;52.198;9.902;2023-03-01T08:35:07;16.70;;;15.40;;
17524;SDS011;40431;52.198;9.902;2023-03-01T08:37:34;18.27;;;16.63;;
17524;SDS011;40431;52.198;9.902;2023-03-01T08:40:00;19.67;;;17.60;;
17524;SDS011;40431;52.198;9.902;2023-03-01T08:42:28;20.63;;;18.50;;
17524;SDS011;40431;52.198;9.902;2023-03-01T08:44:56;19.00;;;17.40;;
17524;SDS011;40431;52.198;9.902;2023-03-01T08:47:22;17.77;;;16.27;;
17524;SDS011;40431;52.198;9.902;2023-03-01T08:49:49;17.33;;;15.40;;
17524;SDS011;40431;52.198;9.902;2023-03-01T08:52:16;15.83;;;14.63;;
17524;SDS011;40431;52.198;9.902;2023-03-01T08:54:42;16.13;;;14.87;;
17524;SDS011;40431;52.198;9.902;2023-03-01T08:57:09;16.03;;;14.73;;
17524;SDS011;40431;52.198;9.902;2023-03-01T08:59:35;16.00;;;14.63;;
17524;SDS011;40431;52.198;9.902;2023-03-01T09:02:03;15.60;;;14.40;;
17524;SDS011;40431;52.198;9.902;2023-03-01T09:04:30;23.33;;;14.60;;
17524;SDS011;40431;52.198;9.902;2023-03-01T09:06:58;15.53;;;14.33;;
17524;SDS011;40431;52.198;9.902;2023-03-01T09:09:24;17.37;;;15.60;;
17524;SDS011;40431;52.198;9.902;2023-03-01T09:11:50;15.90;;;14.60;;
17524;SDS011;40431;52.198;9.902;2023-03-01T09:14:17;16.17;;;14.87;;
17524;SDS011;40431;52.198;9.902;2023-03-01T09:16:43;17.47;;;16.07;;
17524;SDS011;40431;52.198;9.902;2023-03-01T09:19:11;17.53;;;16.07;;
17524;SDS011;40431;52.198;9.902;2023-03-01T09:21:37;15.43;;;14.13;;
17524;SDS011;40431;52.198;9.902;2023-03-01T09:24:04;16.57;;;15.00;;
17524;SDS011;40431;52.198;9.902;2023-03-01T09:26:31;15.13;;;13.97;;
17524;SDS011;40431;52.198;9.902;2023-03-01T09:28:57;15.93;;;14.50;;
17524;SDS011;40431;52.198;9.902;2023-03-01T09:31:24;16.47;;;14.37;;
17524;SDS011;40431;52.198;9.902;2023-03-01T09:33:51;15.70;;;14.27;;
17524;SDS011;40431;52.198;9.902;2023-03-01T09:36:21;15.47;;;14.27;;
17524;SDS011;40431;52.198;9.902;2023-03-01T09:38:50;14.93;;;13.33;;
17524;SDS011;40431;52.198;9.902;2023-03-01T09:41:32;16.37;;;14.53;;
17524;SDS011;40431;52.198;9.902;2023-03-01T09:44:11;14.13;;;12.87;;
17524;SDS011;40431;52.198;9.902;2023-03-01T09:46:45;15.43;;;12.20;;
17524;SDS011;40431;52.198;9.902;2023-03-01T09:49:12;13.77;;;12.43;;
17524;SDS011;40431;52.198;9.902;2023-03-01T09:51:44;12.93;;;11.77;;
17524;SDS011;40431;52.198;9.902;2023-03-01T09:54:20;12.73;;;11.53;;
17524;SDS011;40431;52.198;9.902;2023-03-01T09:56:51;18.20;;;12.27;;
17524;SDS011;40431;52.198;9.902;2023-03-01T09:59:25;12.53;;;11.33;;
17524;SDS011;40431;52.198;9.902;2023-03-01T10:01:58;13.87;;;12.43;;
17524;SDS011;40431;52.198;9.902;2023-03-01T10:04:34;13.47;;;12.27;;
17524;SDS011;40431;52.198;9.902;2023-03-01T10:07:15;13.97;;;12.87;;
17524;SDS011;40431;52.198;9.902;2023-03-01T10:09:48;12.97;;;11.97;;
17524;SDS011;40431;52.198;9.902;2023-03-01T10:12:15;12.87;;;11.67;;
17524;SDS011;40431;52.198;9.902;2023-03-01T10:14:44;11.73;;;10.73;;
17524;SDS011;40431;52.198;9.902;2023-03-01T10:17:23;11.30;;;10.30;;
17524;SDS011;40431;52.198;9.902;2023-03-01T10:19:54;14.20;;;11.30;;
17524;SDS011;40431;52.198;9.902;2023-03-01T10:22:24;12.17;;;11.17;;
17524;SDS011;40431;52.198;9.902;2023-03-01T10:24:54;10.97;;;9.97;;
17524;SDS011;40431;52.198;9.902;2023-03-01T10:27:23;10.90;;;10.00;;
17524;SDS011;40431;52.198;9.902;2023-03-01T10:29:53;10.90;;;10.10;;
17524;SDS011;40431;52.198;9.902;2023-03-01T10:32:26;10.57;;;9.63;;
17524;SDS011;40431;52.198;9.902;2023-03-01T10:34:52;10.07;;;9.17;;
17524;SDS011;40431;52.198;9.902;2023-03-01T10:37:20;10.97;;;8.90;;
17524;SDS011;40431;52.198;9.902;2023-03-01T10:39:57;10.37;;;9.37;;
17524;SDS011;40431;52.198;9.902;2023-03-01T10:42:31;10.80;;;9.80;;
17524;SDS011;40431;52.198;9.902;2023-03-01T10:45:11;11.80;;;8.80;;
17524;SDS011;40431;52.198;9.902;2023-03-01T10:47:41;9.07;;;8.33;;
17524;SDS011;40431;52.198;9.902;2023-03-01T10:50:17;9.23;;;8.53;;
17524;SDS011;40431;52.198;9.902;2023-03-01T10:52:55;20.53;;;10.40;;
17524;SDS011;40431;52.198;9.902;2023-03-01T10:55:26;8.93;;;7.97;;
17524;SDS011;40431;52.198;9.902;2023-03-01T10:58:07;9.93;;;7.37;;
17524;SDS011;40431;52.198;9.902;2023-03-01T11:00:45;9.90;;;8.47;;
17524;SDS011;40431;52.198;9.902;2023-03-01T11:03:15;11.30;;;8.00;;
17524;SDS011;40431;52.198;9.902;2023-03-01T11:05:52;9.37;;;8.47;;
17524;SDS011;40431;52.198;9.902;2023-03-01T11:08:41;7.63;;;6.87;;
17524;SDS011;40431;52.198;9.902;2023-03-01T11:13:58;7.83;;;7.23;;
17524;SDS011;40431;52.198;9.902;2023-03-01T11:16:31;8.90;;;7.63;;
17524;SDS011;40431;52.198;9.902;2023-03-01T11:19:01;13.60;;;8.07;;
17524;SDS011;40431;52.198;9.902;2023-03-01T11:21:48;7.80;;;7.10;;
17524;SDS011;40431;52.198;9.902;2023-03-01T11:24:21;7.80;;;7.10;;
17524;SDS011;40431;52.198;9.902;2023-03-01T11:26:54;8.73;;;7.33;;
17524;SDS011;40431;52.198;9.902;2023-03-01T11:29:25;8.17;;;6.87;;
17524;SDS011;40431;52.198;9.902;2023-03-01T11:31:54;8.07;;;7.33;;
17524;SDS011;40431;52.198;9.902;2023-03-01T11:34:27;20.93;;;9.17;;
17524;SDS011;40431;52.198;9.902;2023-03-01T11:37:03;7.77;;;7.17;;
17524;SDS011;40431;52.198;9.902;2023-03-01T11:39:40;7.90;;;7.10;;
17524;SDS011;40431;52.198;9.902;2023-03-01T11:42:15;7.13;;;6.43;;
17524;SDS011;40431;52.198;9.902;2023-03-01T11:44:46;8.30;;;7.50;;
17524;SDS011;40431;52.198;9.902;2023-03-01T11:47:19;12.00;;;7.40;;
17524;SDS011;40431;52.198;9.902;2023-03-01T11:50:01;7.10;;;6.60;;
17524;SDS011;40431;52.198;9.902;2023-03-01T11:52:37;8.47;;;7.77;;
17524;SDS011;40431;52.198;9.902;2023-03-01T11:55:17;11.30;;;8.43;;
17524;SDS011;40431;52.198;9.902;2023-03-01T11:58:03;10.30;;;6.97;;
17524;SDS011;40431;52.198;9.902;2023-03-01T12:00:46;8.77;;;7.77;;
17524;SDS011;40431;52.198;9.902;2023-03-01T12:03:28;7.67;;;6.60;;
17524;SDS011;40431;52.198;9.902;2023-03-01T12:06:09;8.17;;;6.33;;
17524;SDS011;40431;52.198;9.902;2023-03-01T12:08:55;7.70;;;6.90;;
17524;SDS011;40431;52.198;9.902;2023-03-01T12:11:35;6.20;;;5.70;;
17524;SDS011;40431;52.198;9.902;2023-03-01T12:14:26;8.37;;;6.13;;
17524;SDS011;40431;52.198;9.902;2023-03-01T12:17:12;8.37;;;7.57;;
17524;SDS011;40431;52.198;9.902;2023-03-01T12:20:02;7.23;;;6.53;;
17524;SDS011;40431;52.198;9.902;2023-03-01T12:22:42;9.73;;;6.83;;
17524;SDS011;40431;52.198;9.902;2023-03-01T12:25:23;6.50;;;5.90;;
17524;SDS011;40431;52.198;9.902;2023-03-01T12:28:01;12.40;;;7.00;;
17524;SDS011;40431;52.198;9.902;2023-03-01T12:30:45;8.77;;;6.67;;
17524;SDS011;40431;52.198;9.902;2023-03-01T12:33:26;7.53;;;6.93;;
17524;SDS011;40431;52.198;9.902;2023-03-01T12:36:12;6.90;;;6.33;;
17524;SDS011;40431;52.198;9.902;2023-03-01T12:38:55;7.43;;;6.77;;
17524;SDS011;40431;52.198;9.902;2023-03-01T12:41:36;7.10;;;6.50;;
17524;SDS011;40431;52.198;9.902;2023-03-01T12:44:15;8.17;;;6.30;;
17524;SDS011;40431;52.198;9.902;2023-03-01T12:47:13;6.13;;;5.63;;
17524;SDS011;40431;52.198;9.902;2023-03-01T12:49:49;7.13;;;6.53;;
17524;SDS011;40431;52.198;9.902;2023-03-01T12:52:22;7.50;;;6.73;;
17524;SDS011;40431;52.198;9.902;2023-03-01T12:54:53;6.20;;;5.70;;
17524;SDS011;40431;52.198;9.902;2023-03-01T12:57:24;6.13;;;5.50;;
17524;SDS011;40431;52.198;9.902;2023-03-01T13:00:05;6.17;;;5.67;;
17524;SDS011;40431;52.198;9.902;2023-03-01T13:02:50;7.60;;;6.00;;
17524;SDS011;40431;52.198;9.902;2023-03-01T13:05:28;5.67;;;5.17;;
17524;SDS011;40431;52.198;9.902;2023-03-01T13:08:05;6.37;;;5.83;;
17524;SDS011;40431;52.198;9.902;2023-03-01T13:10:39;43.40;;;8.47;;
17524;SDS011;40431;52.198;9.902;2023-03-01T13:13:13;8.10;;;5.77;;
17524;SDS011;40431;52.198;9.902;2023-03-01T13:15:45;5.40;;;5.00;;
17524;SDS011;40431;52.198;9.902;2023-03-01T13:18:30;6.43;;;5.60;;
17524;SDS011;40431;52.198;9.902;2023-03-01T13:20:58;5.43;;;4.93;;
17524;SDS011;40431;52.198;9.902;2023-03-01T13:23:28;6.03;;;5.53;;
17524;SDS011;40431;52.198;9.902;2023-03-01T13:26:00;5.10;;;4.70;;
17524;SDS011;40431;52.198;9.902;2023-03-01T13:28:38;4.67;;;4.33;;
17524;SDS011;40431;52.198;9.902;2023-03-01T13:31:07;5.80;;;5.40;;
17524;SDS011;40431;52.198;9.902;2023-03-01T13:33:42;4.93;;;4.53;;
17524;SDS011;40431;52.198;9.902;2023-03-01T13:36:10;5.20;;;4.63;;
17524;SDS011;40431;52.198;9.902;2023-03-01T13:39:01;5.47;;;5.07;;
17524;SDS011;40431;52.198;9.902;2023-03-01T13:41:49;5.27;;;4.87;;
17524;SDS011;40431;52.198;9.902;2023-03-01T13:44:20;5.70;;;5.20;;
17524;SDS011;40431;52.198;9.902;2023-03-01T13:46:51;5.23;;;4.73;;
17524;SDS011;40431;52.198;9.902;2023-03-01T13:49:20;7.73;;;5.57;;
17524;SDS011;40431;52.198;9.902;2023-03-01T13:51:49;5.57;;;5.07;;
17524;SDS011;40431;52.198;9.902;2023-03-01T13:54:19;5.90;;;5.30;;
17524;SDS011;40431;52.198;9.902;2023-03-01T13:56:52;4.80;;;4.40;;
17524;SDS011;40431;52.198;9.902;2023-03-01T13:59:21;5.40;;;5.00;;
17524;SDS011;40431;52.198;9.902;2023-03-01T14:01:51;12.97;;;5.20;;
17524;SDS011;40431;52.198;9.902;2023-03-01T14:04:19;6.33;;;5.77;;
17524;SDS011;40431;52.198;9.902;2023-03-01T14:06:47;5.70;;;5.27;;
17524;SDS011;40431;52.198;9.902;2023-03-01T14:09:15;5.63;;;5.13;;
17524;SDS011;40431;52.198;9.902;2023-03-01T14:11:51;5.03;;;4.63;;
17524;SDS011;40431;52.198;9.902;2023-03-01T14:14:43;5.47;;;4.97;;
17524;SDS011;40431;52.198;9.902;2023-03-01T14:17:21;5.30;;;4.80;;
17524;SDS011;40431;52.198;9.902;2023-03-01T14:20:09;4.87;;;4.47;;
17524;SDS011;40431;52.198;9.902;2023-03-01T14:22:40;6.00;;;5.47;;
17524;SDS011;40431;52.198;9.902;2023-03-01T14:25:19;5.43;;;4.00;;
17524;SDS011;40431;52.198;9.902;2023-03-01T14:27:51;5.37;;;4.93;;
17524;SDS011;40431;52.198;9.902;2023-03-01T14:30:21;5.13;;;4.73;;
17524;SDS011;40431;52.198;9.902;2023-03-01T14:32:54;5.07;;;4.67;;
17524;SDS011;40431;52.198;9.902;2023-03-01T14:35:23;5.27;;;4.80;;
17524;SDS011;40431;52.198;9.902;2023-03-01T14:37:51;5.70;;;5.30;;
17524;SDS011;40431;52.198;9.902;2023-03-01T14:40:23;5.03;;;4.60;;
17524;SDS011;40431;52.198;9.902;2023-03-01T14:42:52;4.87;;;4.47;;
17524;SDS011;40431;52.198;9.902;2023-03-01T14:45:21;5.73;;;5.23;;
17524;SDS011;40431;52.198;9.902;2023-03-01T14:47:48;4.43;;;4.03;;
17524;SDS011;40431;52.198;9.902;2023-03-01T14:50:18;5.47;;;4.70;;